sensor_id;sensor_type;location;lat;lon;timestamp;pressure;altitude;pressure_sealevel;temperature;humidity
70015;BME280;57358;51.094;6.760;2023-12-14T00:00:34;100187.53;;;7.38;100.00
70015;BME280;57358;51.094;6.760;2023-12-14T00:03:02;100190.13;;;7.38;100.00
70015;BME280;57358;51.094;6.760;2023-12-14T00:05:29;100154.13;;;7.09;100.00
70015;BME280;57358;51.094;6.760;2023-12-14T00:08:06;100133.03;;;6.94;100.00
70015;BME280;57358;51.094;6.760;2023-12-14T00:10:41;100131.72;;;6.86;100.00
70015;BME280;57358;51.094;6.760;2023-12-14T00:13:08;100222.31;;;7.39;100.00
70015;BME280;57358;51.094;6.760;2023-12-14T00:15:34;100212.84;;;7.36;100.00
70015;BME280;57358;51.094;6.760;2023-12-14T00:18:01;100211.44;;;7.29;100.00
70015;BME280;57358;51.094;6.760;2023-12-14T00:20:28;100232.31;;;7.48;100.00
70015;BME280;57358;51.094;6.760;2023-12-14T00:22:54;100212.78;;;7.38;100.00
70015;BME280;57358;51.094;6.760;2023-12-14T00:25:21;100232.09;;;7.53;100.00
70015;BME280;57358;51.094;6.760;2023-12-14T00:27:47;100242.25;;;7.59;100.00
70015;BME280;57358;51.094;6.760;2023-12-14T00:30:14;100248.31;;;7.59;100.00
70015;BME280;57358;51.094;6.760;2023-12-14T00:32:40;100247.84;;;7.51;100.00
70015;BME280;57358;51.094;6.760;2023-12-14T00:35:07;100157.41;;;6.93;100.00
70015;BME280;57358;51.094;6.760;2023-12-14T00:37:43;100242.63;;;7.32;100.00
70015;BME280;57358;51.094;6.760;2023-12-14T00:40:12;100276.28;;;7.57;100.00
70015;BME280;57358;51.094;6.760;2023-12-14T00:42:39;100276.19;;;7.59;100.00
70015;BME280;57358;51.094;6.760;2023-12-14T00:45:08;100069.91;;;6.29;100.00
70015;BME280;57358;51.094;6.760;2023-12-14T00:47:35;100286.66;;;7.59;100.00
70015;BME280;57358;51.094;6.760;2023-12-14T00:50:02;100297.09;;;7.59;100.00
70015;BME280;57358;51.094;6.760;2023-12-14T00:52:29;100289.00;;;7.46;100.00
70015;BME280;57358;51.094;6.760;2023-12-14T00:54:58;100172.28;;;6.72;100.00
70015;BME280;57358;51.094;6.760;2023-12-14T00:57:25;100302.66;;;7.51;100.00
70015;BME280;57358;51.094;6.760;2023-12-14T00:59:52;100247.66;;;7.18;100.00
70015;BME280;57358;51.094;6.760;2023-12-14T01:02:18;100310.31;;;7.56;100.00
70015;BME280;57358;51.094;6.760;2023-12-14T01:04:45;100321.53;;;7.58;100.00
70015;BME280;57358;51.094;6.760;2023-12-14T01:07:11;100325.97;;;7.56;100.00
70015;BME280;57358;51.094;6.760;2023-12-14T01:09:38;100336.75;;;7.67;100.00
70015;BME280;57358;51.094;6.760;2023-12-14T01:12:04;100341.03;;;7.70;100.00
70015;BME280;57358;51.094;6.760;2023-12-14T01:14:31;100342.97;;;7.65;100.00
70015;BME280;57358;51.094;6.760;2023-12-14T01:16:57;100293.91;;;7.33;100.00
70015;BME280;57358;51.094;6.760;2023-12-14T01:19:24;100232.38;;;6.90;100.00
70015;BME280;57358;51.094;6.760;2023-12-14T01:21:52;100268.97;;;7.07;100.00
70015;BME280;57358;51.094;6.760;2023-12-14T01:24:18;100309.34;;;7.19;100.00
70015;BME280;57358;51.094;6.760;2023-12-14T01:26:44;100361.47;;;7.60;100.00
70015;BME280;57358;51.094;6.760;2023-12-14T01:29:11;100362.38;;;7.59;100.00
70015;BME280;57358;51.094;6.760;2023-12-14T01:31:38;100369.09;;;7.65;100.00
70015;BME280;57358;51.094;6.760;2023-12-14T01:34:04;100380.53;;;7.62;100.00
70015;BME280;57358;51.094;6.760;2023-12-14T01:36:30;100382.94;;;7.67;100.00
70015;BME280;57358;51.094;6.760;2023-12-14T01:38:57;100353.50;;;7.44;100.00
70015;BME280;57358;51.094;6.760;2023-12-14T01:41:23;100410.50;;;7.74;100.00
70015;BME280;57358;51.094;6.760;2023-12-14T01:43:50;100410.41;;;7.75;100.00
70015;BME280;57358;51.094;6.760;2023-12-14T01:46:16;100418.84;;;7.62;100.00
70015;BME280;57358;51.094;6.760;2023-12-14T01:48:43;100419.91;;;7.57;100.00
70015;BME280;57358;51.094;6.760;2023-12-14T01:51:09;100410.00;;;7.45;100.00
70015;BME280;57358;51.094;6.760;2023-12-14T01:53:36;100441.84;;;7.53;100.00
70015;BME280;57358;51.094;6.760;2023-12-14T01:56:02;100436.31;;;7.41;100.00
70015;BME280;57358;51.094;6.760;2023-12-14T01:58:29;100445.19;;;7.36;100.00
70015;BME280;57358;51.094;6.760;2023-12-14T02:03:29;100462.75;;;7.33;100.00
70015;BME280;57358;51.094;6.760;2023-12-14T02:05:56;100356.91;;;6.64;100.00
70015;BME280;57358;51.094;6.760;2023-12-14T02:08:24;100473.59;;;7.24;100.00
70015;BME280;57358;51.094;6.760;2023-12-14T02:10:51;100469.53;;;7.16;100.00
70015;BME280;57358;51.094;6.760;2023-12-14T02:13:18;100374.75;;;6.53;100.00
70015;BME280;57358;51.094;6.760;2023-12-14T02:15:44;100439.50;;;6.86;100.00
70015;BME280;57358;51.094;6.760;2023-12-14T02:18:10;100480.28;;;7.09;100.00
70015;BME280;57358;51.094;6.760;2023-12-14T02:20:37;100421.06;;;6.68;100.00
70015;BME280;57358;51.094;6.760;2023-12-14T02:23:06;100482.03;;;7.08;100.00
70015;BME280;57358;51.094;6.760;2023-12-14T02:25:33;100472.97;;;6.96;100.00
70015;BME280;57358;51.094;6.760;2023-12-14T02:27:59;100480.66;;;6.99;100.00
70015;BME280;57358;51.094;6.760;2023-12-14T02:30:26;100490.25;;;6.99;100.00
70015;BME280;57358;51.094;6.760;2023-12-14T02:32:52;100448.28;;;6.61;100.00
70015;BME280;57358;51.094;6.760;2023-12-14T02:35:19;100447.50;;;6.59;100.00
70015;BME280;57358;51.094;6.760;2023-12-14T02:37:45;100427.03;;;6.50;100.00
70015;BME280;57358;51.094;6.760;2023-12-14T02:40:13;100422.34;;;6.36;100.00
70015;BME280;57358;51.094;6.760;2023-12-14T02:42:39;100469.03;;;6.64;100.00
70015;BME280;57358;51.094;6.760;2023-12-14T02:45:07;100518.94;;;6.99;100.00
70015;BME280;57358;51.094;6.760;2023-12-14T02:47:34;100516.72;;;6.90;100.00
70015;BME280;57358;51.094;6.760;2023-12-14T02:50:00;100524.78;;;6.84;100.00
70015;BME280;57358;51.094;6.760;2023-12-14T02:52:27;100514.75;;;6.73;100.00
70015;BME280;57358;51.094;6.760;2023-12-14T02:54:53;100469.22;;;6.37;100.00
70015;BME280;57358;51.094;6.760;2023-12-14T02:57:19;100510.63;;;6.67;100.00
70015;BME280;57358;51.094;6.760;2023-12-14T02:59:46;100513.97;;;6.71;100.00
70015;BME280;57358;51.094;6.760;2023-12-14T03:02:12;100493.88;;;6.51;100.00
70015;BME280;57358;51.094;6.760;2023-12-14T03:04:39;100518.44;;;6.67;100.00
70015;BME280;57358;51.094;6.760;2023-12-14T03:07:08;100515.28;;;6.59;100.00
70015;BME280;57358;51.094;6.760;2023-12-14T03:09:35;100409.78;;;6.02;100.00
70015;BME280;57358;51.094;6.760;2023-12-14T03:12:05;100482.41;;;6.33;100.00
70015;BME280;57358;51.094;6.760;2023-12-14T03:14:33;100525.63;;;6.62;100.00
70015;BME280;57358;51.094;6.760;2023-12-14T03:16:59;100510.88;;;6.61;100.00
70015;BME280;57358;51.094;6.760;2023-12-14T03:19:26;100473.75;;;6.32;100.00
70015;BME280;57358;51.094;6.760;2023-12-14T03:21:53;100519.56;;;6.62;100.00
70015;BME280;57358;51.094;6.760;2023-12-14T03:24:19;100529.25;;;6.58;100.00
70015;BME280;57358;51.094;6.760;2023-12-14T03:26:46;100524.94;;;6.57;100.00
70015;BME280;57358;51.094;6.760;2023-12-14T03:29:12;100533.91;;;6.50;100.00
70015;BME280;57358;51.094;6.760;2023-12-14T03:31:39;100406.25;;;5.55;100.00
70015;BME280;57358;51.094;6.760;2023-12-14T03:34:06;100545.19;;;6.50;100.00
70015;BME280;57358;51.094;6.760;2023-12-14T03:36:32;100548.88;;;6.45;100.00
70015;BME280;57358;51.094;6.760;2023-12-14T03:38:59;100512.16;;;6.04;100.00
70015;BME280;57358;51.094;6.760;2023-12-14T03:41:25;100434.66;;;5.62;100.00
70015;BME280;57358;51.094;6.760;2023-12-14T03:43:52;100481.41;;;5.88;100.00
70015;BME280;57358;51.094;6.760;2023-12-14T03:46:18;100560.72;;;6.30;100.00
70015;BME280;57358;51.094;6.760;2023-12-14T03:48:44;100570.16;;;6.32;100.00
70015;BME280;57358;51.094;6.760;2023-12-14T03:51:11;100567.38;;;6.37;100.00
70015;BME280;57358;51.094;6.760;2023-12-14T03:53:37;100518.38;;;5.99;100.00
70015;BME280;57358;51.094;6.760;2023-12-14T03:56:04;100544.78;;;6.14;100.00
70015;BME280;57358;51.094;6.760;2023-12-14T03:58:30;100576.88;;;6.39;100.00
70015;BME280;57358;51.094;6.760;2023-12-14T04:00:57;100582.22;;;6.35;100.00
70015;BME280;57358;51.094;6.760;2023-12-14T04:03:23;100534.34;;;5.89;100.00
70015;BME280;57358;51.094;6.760;2023-12-14T04:05:50;100547.94;;;5.98;100.00
70015;BME280;57358;51.094;6.760;2023-12-14T04:08:17;100595.84;;;6.19;100.00
70015;BME280;57358;51.094;6.760;2023-12-14T04:10:43;100611.88;;;6.32;100.00
70015;BME280;57358;51.094;6.760;2023-12-14T04:13:10;100608.56;;;6.27;100.00
70015;BME280;57358;51.094;6.760;2023-12-14T04:15:36;100603.44;;;6.26;100.00
70015;BME280;57358;51.094;6.760;2023-12-14T04:18:03;100500.53;;;5.64;100.00
70015;BME280;57358;51.094;6.760;2023-12-14T04:20:30;100605.28;;;6.22;100.00
70015;BME280;57358;51.094;6.760;2023-12-14T04:22:56;100549.53;;;6.03;100.00
70015;BME280;57358;51.094;6.760;2023-12-14T04:25:23;100584.00;;;6.09;100.00
70015;BME280;57358;51.094;6.760;2023-12-14T04:27:49;100600.34;;;6.14;100.00
70015;BME280;57358;51.094;6.760;2023-12-14T04:30:16;100601.19;;;6.15;100.00
70015;BME280;57358;51.094;6.760;2023-12-14T04:32:42;100602.19;;;6.11;100.00
70015;BME280;57358;51.094;6.760;2023-12-14T04:35:09;100605.06;;;6.03;100.00
70015;BME280;57358;51.094;6.760;2023-12-14T04:37:35;100612.03;;;6.03;100.00
70015;BME280;57358;51.094;6.760;2023-12-14T04:40:03;100614.03;;;5.96;100.00
70015;BME280;57358;51.094;6.760;2023-12-14T04:42:29;100557.22;;;5.55;100.00
70015;BME280;57358;51.094;6.760;2023-12-14T04:44:55;100623.47;;;5.98;100.00
70015;BME280;57358;51.094;6.760;2023-12-14T04:47:22;100621.06;;;5.92;100.00
70015;BME280;57358;51.094;6.760;2023-12-14T04:49:48;100631.47;;;5.92;100.00
70015;BME280;57358;51.094;6.760;2023-12-14T04:52:15;100631.47;;;5.92;100.00
70015;BME280;57358;51.094;6.760;2023-12-14T04:54:41;100547.16;;;5.45;100.00
70015;BME280;57358;51.094;6.760;2023-12-14T04:57:08;100643.53;;;5.96;100.00
70015;BME280;57358;51.094;6.760;2023-12-14T04:59:35;100596.66;;;5.70;100.00
70015;BME280;57358;51.094;6.760;2023-12-14T05:02:02;100654.34;;;6.09;100.00
70015;BME280;57358;51.094;6.760;2023-12-14T05:04:28;100610.03;;;5.84;100.00
70015;BME280;57358;51.094;6.760;2023-12-14T05:06:55;100652.09;;;6.00;100.00
70015;BME280;57358;51.094;6.760;2023-12-14T05:09:21;100661.53;;;6.03;100.00
70015;BME280;57358;51.094;6.760;2023-12-14T05:11:48;100664.84;;;6.08;100.00
70015;BME280;57358;51.094;6.760;2023-12-14T05:14:14;100432.88;;;4.60;100.00
70015;BME280;57358;51.094;6.760;2023-12-14T05:16:41;100672.72;;;6.06;100.00
70015;BME280;57358;51.094;6.760;2023-12-14T05:19:07;100642.13;;;5.85;100.00
70015;BME280;57358;51.094;6.760;2023-12-14T05:21:34;100573.34;;;5.40;100.00
70015;BME280;57358;51.094;6.760;2023-12-14T05:24:00;100675.50;;;6.02;100.00
70015;BME280;57358;51.094;6.760;2023-12-14T05:26:26;100450.97;;;4.63;100.00
70015;BME280;57358;51.094;6.760;2023-12-14T05:28:53;100674.81;;;5.95;100.00
70015;BME280;57358;51.094;6.760;2023-12-14T05:31:20;100631.59;;;5.63;100.00
70015;BME280;57358;51.094;6.760;2023-12-14T05:33:46;100660.69;;;5.75;100.00
70015;BME280;57358;51.094;6.760;2023-12-14T05:36:13;100467.44;;;4.62;100.00
70015;BME280;57358;51.094;6.760;2023-12-14T05:38:40;100638.34;;;5.68;100.00
70015;BME280;57358;51.094;6.760;2023-12-14T05:41:07;100635.31;;;5.55;100.00
70015;BME280;57358;51.094;6.760;2023-12-14T05:43:33;100637.03;;;5.55;100.00
70015;BME280;57358;51.094;6.760;2023-12-14T05:46:00;100677.59;;;5.62;100.00
70015;BME280;57358;51.094;6.760;2023-12-14T05:48:26;100719.59;;;5.79;100.00
70015;BME280;57358;51.094;6.760;2023-12-14T05:50:54;100718.78;;;5.77;100.00
70015;BME280;57358;51.094;6.760;2023-12-14T05:53:21;100733.44;;;5.80;100.00
70015;BME280;57358;51.094;6.760;2023-12-14T05:55:47;100687.97;;;5.64;100.00
70015;BME280;57358;51.094;6.760;2023-12-14T05:58:14;100737.38;;;5.93;100.00
70015;BME280;57358;51.094;6.760;2023-12-14T06:00:40;100740.06;;;5.90;100.00
70015;BME280;57358;51.094;6.760;2023-12-14T06:03:07;100747.00;;;5.91;100.00
70015;BME280;57358;51.094;6.760;2023-12-14T06:05:35;100745.28;;;5.90;100.00
70015;BME280;57358;51.094;6.760;2023-12-14T06:08:02;100603.22;;;5.00;100.00
70015;BME280;57358;51.094;6.760;2023-12-14T06:10:29;100709.50;;;5.69;100.00
70015;BME280;57358;51.094;6.760;2023-12-14T06:12:56;100675.63;;;5.42;100.00
70015;BME280;57358;51.094;6.760;2023-12-14T06:15:22;100766.06;;;5.92;100.00
70015;BME280;57358;51.094;6.760;2023-12-14T06:17:48;100617.97;;;4.99;100.00
70015;BME280;57358;51.094;6.760;2023-12-14T06:20:16;100655.97;;;5.05;100.00
70015;BME280;57358;51.094;6.760;2023-12-14T06:22:42;100785.91;;;5.97;100.00
70015;BME280;57358;51.094;6.760;2023-12-14T06:25:09;100789.56;;;5.90;100.00
70015;BME280;57358;51.094;6.760;2023-12-14T06:27:35;100793.97;;;5.88;100.00
70015;BME280;57358;51.094;6.760;2023-12-14T06:30:02;100804.47;;;5.85;100.00
70015;BME280;57358;51.094;6.760;2023-12-14T06:32:29;100744.31;;;5.36;100.00
70015;BME280;57358;51.094;6.760;2023-12-14T06:34:55;100706.06;;;5.10;100.00
70015;BME280;57358;51.094;6.760;2023-12-14T06:37:22;100841.06;;;5.80;100.00
70015;BME280;57358;51.094;6.760;2023-12-14T06:39:48;100581.03;;;4.29;100.00
70015;BME280;57358;51.094;6.760;2023-12-14T06:42:15;100825.75;;;5.71;100.00
70015;BME280;57358;51.094;6.760;2023-12-14T06:44:41;100741.53;;;5.13;100.00
70015;BME280;57358;51.094;6.760;2023-12-14T06:47:07;100795.53;;;5.36;100.00
70015;BME280;57358;51.094;6.760;2023-12-14T06:49:34;100863.91;;;5.71;100.00
70015;BME280;57358;51.094;6.760;2023-12-14T06:52:00;100869.94;;;5.73;100.00
70015;BME280;57358;51.094;6.760;2023-12-14T06:54:30;100857.22;;;5.64;100.00
70015;BME280;57358;51.094;6.760;2023-12-14T06:56:56;100863.31;;;5.61;100.00
70015;BME280;57358;51.094;6.760;2023-12-14T06:59:23;100869.50;;;5.58;100.00
70015;BME280;57358;51.094;6.760;2023-12-14T07:01:49;100789.25;;;5.13;100.00
70015;BME280;57358;51.094;6.760;2023-12-14T07:04:16;100821.72;;;5.30;100.00
70015;BME280;57358;51.094;6.760;2023-12-14T07:06:42;100856.63;;;5.54;100.00
70015;BME280;57358;51.094;6.760;2023-12-14T07:09:09;100877.25;;;5.60;100.00
70015;BME280;57358;51.094;6.760;2023-12-14T07:11:36;100884.22;;;5.59;100.00
70015;BME280;57358;51.094;6.760;2023-12-14T07:14:02;100889.28;;;5.64;100.00
70015;BME280;57358;51.094;6.760;2023-12-14T07:16:29;100822.88;;;5.19;100.00
70015;BME280;57358;51.094;6.760;2023-12-14T07:18:55;100847.66;;;5.33;100.00
70015;BME280;57358;51.094;6.760;2023-12-14T07:21:22;100766.56;;;4.87;100.00
70015;BME280;57358;51.094;6.760;2023-12-14T07:23:48;100903.44;;;5.55;100.00
70015;BME280;57358;51.094;6.760;2023-12-14T07:26:15;100914.47;;;5.64;100.00
70015;BME280;57358;51.094;6.760;2023-12-14T07:28:41;100912.59;;;5.69;100.00
70015;BME280;57358;51.094;6.760;2023-12-14T07:31:08;100912.69;;;5.66;100.00
70015;BME280;57358;51.094;6.760;2023-12-14T07:33:34;100920.59;;;5.61;100.00
70015;BME280;57358;51.094;6.760;2023-12-14T07:36:02;100919.75;;;5.60;100.00
70015;BME280;57358;51.094;6.760;2023-12-14T07:38:31;100919.13;;;5.52;100.00
70015;BME280;57358;51.094;6.760;2023-12-14T07:40:57;100918.13;;;5.56;100.00
70015;BME280;57358;51.094;6.760;2023-12-14T07:43:24;100768.13;;;4.60;100.00
70015;BME280;57358;51.094;6.760;2023-12-14T07:45:50;100858.53;;;5.16;100.00
70015;BME280;57358;51.094;6.760;2023-12-14T07:48:17;100940.78;;;5.53;100.00
70015;BME280;57358;51.094;6.760;2023-12-14T07:50:44;100942.38;;;5.58;100.00
70015;BME280;57358;51.094;6.760;2023-12-14T07:53:10;100876.78;;;5.14;100.00
70015;BME280;57358;51.094;6.760;2023-12-14T07:55:37;100940.69;;;5.57;100.00
70015;BME280;57358;51.094;6.760;2023-12-14T07:58:03;100917.81;;;5.37;100.00
70015;BME280;57358;51.094;6.760;2023-12-14T08:00:32;100925.38;;;5.45;100.00
70015;BME280;57358;51.094;6.760;2023-12-14T08:02:58;100946.81;;;5.55;100.00
70015;BME280;57358;51.094;6.760;2023-12-14T08:05:25;100950.31;;;5.54;100.00
70015;BME280;57358;51.094;6.760;2023-12-14T08:07:51;100956.31;;;5.57;100.00
70015;BME280;57358;51.094;6.760;2023-12-14T08:10:19;100866.75;;;5.00;100.00
70015;BME280;57358;51.094;6.760;2023-12-14T08:12:46;100969.56;;;5.48;100.00
70015;BME280;57358;51.094;6.760;2023-12-14T08:15:13;100949.84;;;5.39;100.00
70015;BME280;57358;51.094;6.760;2023-12-14T08:17:40;100962.88;;;5.39;100.00
70015;BME280;57358;51.094;6.760;2023-12-14T08:20:07;100975.78;;;5.43;100.00
70015;BME280;57358;51.094;6.760;2023-12-14T08:22:35;100992.25;;;5.43;100.00
70015;BME280;57358;51.094;6.760;2023-12-14T08:25:02;100984.34;;;5.48;100.00
70015;BME280;57358;51.094;6.760;2023-12-14T08:27:30;100963.06;;;5.32;100.00
70015;BME280;57358;51.094;6.760;2023-12-14T08:29:56;100994.66;;;5.51;100.00
70015;BME280;57358;51.094;6.760;2023-12-14T08:32:22;100948.63;;;5.20;100.00
70015;BME280;57358;51.094;6.760;2023-12-14T08:34:49;100850.56;;;4.55;100.00
70015;BME280;57358;51.094;6.760;2023-12-14T08:37:15;100962.44;;;5.22;100.00
70015;BME280;57358;51.094;6.760;2023-12-14T08:39:42;100993.34;;;5.34;100.00
70015;BME280;57358;51.094;6.760;2023-12-14T08:42:08;101034.63;;;5.48;100.00
70015;BME280;57358;51.094;6.760;2023-12-14T08:44:41;101015.66;;;5.43;100.00
70015;BME280;57358;51.094;6.760;2023-12-14T08:47:07;101017.41;;;5.44;100.00
70015;BME280;57358;51.094;6.760;2023-12-14T08:49:35;101022.78;;;5.36;100.00
70015;BME280;57358;51.094;6.760;2023-12-14T08:52:02;101004.22;;;5.16;100.00
70015;BME280;57358;51.094;6.760;2023-12-14T08:54:30;100934.31;;;4.68;100.00
70015;BME280;57358;51.094;6.760;2023-12-14T08:56:56;100973.88;;;4.80;100.00
70015;BME280;57358;51.094;6.760;2023-12-14T08:59:23;101050.09;;;5.20;100.00
70015;BME280;57358;51.094;6.760;2023-12-14T09:01:49;101063.94;;;5.20;100.00
70015;BME280;57358;51.094;6.760;2023-12-14T09:04:16;101071.88;;;5.16;100.00
70015;BME280;57358;51.094;6.760;2023-12-14T09:06:43;101075.56;;;5.07;100.00
70015;BME280;57358;51.094;6.760;2023-12-14T09:09:13;101069.66;;;4.99;100.00
70015;BME280;57358;51.094;6.760;2023-12-14T09:11:39;101105.69;;;5.16;100.00
70015;BME280;57358;51.094;6.760;2023-12-14T09:14:06;101118.53;;;5.24;100.00
70015;BME280;57358;51.094;6.760;2023-12-14T09:16:33;101115.25;;;5.15;100.00
70015;BME280;57358;51.094;6.760;2023-12-14T09:18:59;101044.28;;;4.71;100.00
70015;BME280;57358;51.094;6.760;2023-12-14T09:21:26;101096.47;;;5.01;100.00
70015;BME280;57358;51.094;6.760;2023-12-14T09:24:06;101121.16;;;5.22;100.00
70015;BME280;57358;51.094;6.760;2023-12-14T09:26:36;101104.03;;;5.13;100.00
70015;BME280;57358;51.094;6.760;2023-12-14T09:29:02;101115.19;;;5.17;100.00
70015;BME280;57358;51.094;6.760;2023-12-14T09:31:29;101137.38;;;5.33;100.00
70015;BME280;57358;51.094;6.760;2023-12-14T09:33:56;101079.22;;;4.97;100.00
70015;BME280;57358;51.094;6.760;2023-12-14T09:36:22;101122.75;;;5.29;100.00
70015;BME280;57358;51.094;6.760;2023-12-14T09:38:49;101067.81;;;5.04;100.00
70015;BME280;57358;51.094;6.760;2023-12-14T09:41:15;101080.47;;;5.19;100.00
70015;BME280;57358;51.094;6.760;2023-12-14T09:43:42;101091.50;;;5.29;100.00
70015;BME280;57358;51.094;6.760;2023-12-14T09:46:10;101097.31;;;5.39;100.00
70015;BME280;57358;51.094;6.760;2023-12-14T09:48:39;101065.50;;;5.29;100.00
70015;BME280;57358;51.094;6.760;2023-12-14T09:51:06;101073.16;;;5.35;100.00
70015;BME280;57358;51.094;6.760;2023-12-14T09:53:32;101042.19;;;5.23;100.00
70015;BME280;57358;51.094;6.760;2023-12-14T09:55:59;101092.91;;;5.43;100.00
70015;BME280;57358;51.094;6.760;2023-12-14T09:58:25;101052.84;;;5.48;100.00
70015;BME280;57358;51.094;6.760;2023-12-14T10:00:52;101037.41;;;5.42;100.00
70015;BME280;57358;51.094;6.760;2023-12-14T10:03:23;101031.00;;;5.55;100.00
70015;BME280;57358;51.094;6.760;2023-12-14T10:05:53;101029.31;;;5.53;100.00
70015;BME280;57358;51.094;6.760;2023-12-14T10:08:21;101011.09;;;5.53;100.00
70015;BME280;57358;51.094;6.760;2023-12-14T10:10:50;100940.19;;;5.10;100.00
70015;BME280;57358;51.094;6.760;2023-12-14T10:13:20;101019.50;;;5.63;100.00
70015;BME280;57358;51.094;6.760;2023-12-14T10:15:48;100997.00;;;5.62;100.00
70015;BME280;57358;51.094;6.760;2023-12-14T10:18:22;100992.81;;;5.54;100.00
70015;BME280;57358;51.094;6.760;2023-12-14T10:20:50;101001.38;;;5.59;100.00
70015;BME280;57358;51.094;6.760;2023-12-14T10:23:17;100957.88;;;5.30;100.00
70015;BME280;57358;51.094;6.760;2023-12-14T10:25:44;101018.66;;;5.62;100.00
70015;BME280;57358;51.094;6.760;2023-12-14T10:28:15;101012.59;;;5.62;100.00
70015;BME280;57358;51.094;6.760;2023-12-14T10:30:42;101010.03;;;5.60;100.00
70015;BME280;57358;51.094;6.760;2023-12-14T10:33:08;100987.97;;;5.40;100.00
70015;BME280;57358;51.094;6.760;2023-12-14T10:35:35;101029.78;;;5.67;100.00
70015;BME280;57358;51.094;6.760;2023-12-14T10:38:03;100953.13;;;5.13;100.00
70015;BME280;57358;51.094;6.760;2023-12-14T10:40:32;101028.56;;;5.49;100.00
70015;BME280;57358;51.094;6.760;2023-12-14T10:42:59;101057.91;;;5.54;100.00
70015;BME280;57358;51.094;6.760;2023-12-14T10:45:32;101048.47;;;5.50;100.00
70015;BME280;57358;51.094;6.760;2023-12-14T10:48:00;101028.94;;;5.34;100.00
70015;BME280;57358;51.094;6.760;2023-12-14T10:50:29;100977.56;;;5.08;100.00
70015;BME280;57358;51.094;6.760;2023-12-14T10:52:59;101003.16;;;5.23;100.00
70015;BME280;57358;51.094;6.760;2023-12-14T10:55:41;101056.97;;;5.57;100.00
70015;BME280;57358;51.094;6.760;2023-12-14T10:58:08;101022.66;;;5.41;100.00
70015;BME280;57358;51.094;6.760;2023-12-14T11:00:36;100976.22;;;5.26;100.00
70015;BME280;57358;51.094;6.760;2023-12-14T11:03:05;100960.88;;;5.15;100.00
70015;BME280;57358;51.094;6.760;2023-12-14T11:05:33;101041.13;;;5.66;100.00
70015;BME280;57358;51.094;6.760;2023-12-14T11:08:05;101041.06;;;5.69;100.00
70015;BME280;57358;51.094;6.760;2023-12-14T11:10:41;101015.66;;;5.43;100.00
70015;BME280;57358;51.094;6.760;2023-12-14T11:13:10;101040.47;;;5.58;100.00
70015;BME280;57358;51.094;6.760;2023-12-14T11:15:39;101060.50;;;5.54;100.00
70015;BME280;57358;51.094;6.760;2023-12-14T11:23:17;101072.22;;;5.71;100.00
70015;BME280;57358;51.094;6.760;2023-12-14T11:25:48;101069.53;;;5.75;100.00
70015;BME280;57358;51.094;6.760;2023-12-14T11:28:22;101075.63;;;5.74;100.00
70015;BME280;57358;51.094;6.760;2023-12-14T11:30:52;101029.00;;;5.31;100.00
70015;BME280;57358;51.094;6.760;2023-12-14T11:33:22;101055.53;;;5.45;100.00
70015;BME280;57358;51.094;6.760;2023-12-14T11:35:51;101078.00;;;5.49;100.00
70015;BME280;57358;51.094;6.760;2023-12-14T11:38:19;101076.56;;;5.37;100.00
70015;BME280;57358;51.094;6.760;2023-12-14T11:40:47;101014.41;;;4.89;100.00
70015;BME280;57358;51.094;6.760;2023-12-14T11:43:17;101116.31;;;5.44;100.00
70015;BME280;57358;51.094;6.760;2023-12-14T11:45:47;101140.41;;;5.52;100.00
70015;BME280;57358;51.094;6.760;2023-12-14T11:48:13;101104.69;;;5.22;100.00
70015;BME280;57358;51.094;6.760;2023-12-14T11:50:41;101145.53;;;5.55;100.00
70015;BME280;57358;51.094;6.760;2023-12-14T11:53:09;101146.44;;;5.53;100.00
70015;BME280;57358;51.094;6.760;2023-12-14T11:55:39;101200.22;;;5.55;100.00
70015;BME280;57358;51.094;6.760;2023-12-14T11:58:06;101126.16;;;5.31;100.00
70015;BME280;57358;51.094;6.760;2023-12-14T12:00:34;101050.69;;;4.95;100.00
70015;BME280;57358;51.094;6.760;2023-12-14T12:03:14;101157.38;;;5.67;100.00
70015;BME280;57358;51.094;6.760;2023-12-14T12:05:42;101138.50;;;5.59;100.00
70015;BME280;57358;51.094;6.760;2023-12-14T12:08:10;101093.84;;;5.40;100.00
70015;BME280;57358;51.094;6.760;2023-12-14T12:10:38;101129.94;;;5.55;100.00
70015;BME280;57358;51.094;6.760;2023-12-14T12:13:12;101135.03;;;5.58;100.00
70015;BME280;57358;51.094;6.760;2023-12-14T12:15:39;101041.28;;;4.90;100.00
70015;BME280;57358;51.094;6.760;2023-12-14T12:18:07;101096.44;;;5.40;100.00
70015;BME280;57358;51.094;6.760;2023-12-14T12:20:34;101123.03;;;5.53;100.00
70015;BME280;57358;51.094;6.760;2023-12-14T12:23:01;101122.84;;;5.60;100.00
70015;BME280;57358;51.094;6.760;2023-12-14T12:25:28;101105.44;;;5.63;100.00
70015;BME280;57358;51.094;6.760;2023-12-14T12:27:54;101100.19;;;5.64;100.00
70015;BME280;57358;51.094;6.760;2023-12-14T12:30:23;101043.56;;;5.38;100.00
70015;BME280;57358;51.094;6.760;2023-12-14T12:32:50;101101.78;;;5.70;100.00
70015;BME280;57358;51.094;6.760;2023-12-14T12:35:22;101116.28;;;5.80;100.00
70015;BME280;57358;51.094;6.760;2023-12-14T12:37:49;100977.66;;;5.03;100.00
70015;BME280;57358;51.094;6.760;2023-12-14T12:40:21;101092.16;;;5.73;100.00
70015;BME280;57358;51.094;6.760;2023-12-14T12:42:48;101090.72;;;5.62;100.00
70015;BME280;57358;51.094;6.760;2023-12-14T12:45:18;101112.09;;;5.74;100.00
70015;BME280;57358;51.094;6.760;2023-12-14T12:47:47;101005.16;;;5.13;100.00
70015;BME280;57358;51.094;6.760;2023-12-14T12:50:14;101013.03;;;5.10;100.00
70015;BME280;57358;51.094;6.760;2023-12-14T12:52:41;101113.34;;;5.59;100.00
70015;BME280;57358;51.094;6.760;2023-12-14T12:55:09;101127.09;;;5.63;100.00
70015;BME280;57358;51.094;6.760;2023-12-14T12:57:36;101073.84;;;5.42;100.00